Time;durP1;ratioP1;P1;durP2;ratioP2;P2;SDS_P1;SDS_P2;PMS_P1;PMS_P2;Temp;Humidity;BMP_temperature;BMP_pressure;BME280_temperature;BME280_humidity;BME280_pressure;Samples;Min_cycle;Max_cycle;Signal;HPM_P1;HPM_P2
2023/04/15 00:01:48;;;;;;;;;10.75;10.75;;;;;11.52;51.85;100878.94;5070575;28;10580;-67
2023/04/15 00:04:15;;;;;;;;;14.75;11.75;;;;;11.47;51.72;100881.41;5067152;28;10512;-66
2023/04/15 00:06:42;;;;;;;;;13.00;12.75;;;;;11.39;51.88;100879.69;5061826;28;10530;-67
2023/04/15 00:09:08;;;;;;;;;10.25;10.25;;;;;11.35;51.79;100879.25;5056908;28;10737;-68
2023/04/15 00:11:34;;;;;;;;;11.75;8.00;;;;;11.34;52.18;100874.91;5066585;28;10639;-67
2023/04/15 00:14:01;;;;;;;;;12.00;12.00;;;;;11.30;52.12;100875.47;5069978;28;10579;-67
2023/04/15 00:16:27;;;;;;;;;9.50;9.50;;;;;11.33;52.23;100873.22;5068035;28;10689;-68
2023/04/15 00:18:54;;;;;;;;;9.25;7.50;;;;;11.33;52.11;100881.31;5061966;28;10524;-67
2023/04/15 00:21:20;;;;;;;;;11.00;10.00;;;;;11.34;51.59;100879.44;5070271;28;10706;-67
2023/04/15 00:23:51;;;;;;;;;5.50;5.00;;;;;11.38;51.83;100883.41;5070492;28;10778;-66
2023/04/15 00:26:18;;;;;;;;;12.00;11.25;;;;;11.38;51.46;100875.31;5070141;28;10681;-68
2023/04/15 00:28:46;;;;;;;;;11.00;10.00;;;;;11.39;51.69;100880.53;5070261;28;10606;-68
2023/04/15 00:31:13;;;;;;;;;10.75;10.25;;;;;11.31;52.13;100877.16;5062701;28;10607;-67
2023/04/15 00:33:39;;;;;;;;;10.75;10.75;;;;;11.31;52.23;100878.00;5067147;28;10692;-67
2023/04/15 00:36:06;;;;;;;;;9.50;8.75;;;;;11.37;52.35;100879.06;5067333;28;10684;-67
2023/04/15 00:38:32;;;;;;;;;9.50;7.75;;;;;11.34;52.01;100876.75;5070220;28;10570;-67
2023/04/15 00:40:59;;;;;;;;;10.50;8.50;;;;;11.32;52.24;100873.44;5070044;28;10713;-68
2023/04/15 00:43:26;;;;;;;;;8.75;8.50;;;;;11.29;52.57;100873.81;5068539;28;10662;-66
2023/04/15 00:45:54;;;;;;;;;9.25;9.00;;;;;11.33;52.84;100878.63;5060295;28;10644;-68
2023/04/15 00:48:21;;;;;;;;;12.50;10.50;;;;;11.23;52.29;100880.84;5054587;28;10536;-68
2023/04/15 00:50:48;;;;;;;;;12.75;12.00;;;;;11.14;52.62;100879.34;5068367;28;10467;-67
2023/04/15 00:53:14;;;;;;;;;9.00;9.00;;;;;11.17;52.81;100881.63;5070105;28;10651;-67
2023/04/15 00:55:41;;;;;;;;;12.00;10.00;;;;;11.14;52.72;100887.44;5069662;28;10822;-67
2023/04/15 00:58:07;;;;;;;;;9.00;9.00;;;;;11.16;53.61;100888.03;5068929;28;11384;-68
2023/04/15 01:00:34;;;;;;;;;14.00;11.50;;;;;11.16;52.91;100882.66;5068509;28;10748;-67
2023/04/15 01:03:01;;;;;;;;;11.00;11.00;;;;;11.15;52.99;100886.38;5059541;28;11423;-67
2023/04/15 01:05:30;;;;;;;;;13.00;10.75;;;;;11.09;52.73;100885.28;5064136;28;10690;-66
2023/04/15 01:07:56;;;;;;;;;8.00;8.00;;;;;11.10;53.00;100880.75;5048660;28;11474;-67
2023/04/15 01:10:23;;;;;;;;;10.50;10.00;;;;;11.12;53.35;100886.78;5049702;28;10676;-67
2023/04/15 01:12:50;;;;;;;;;11.50;8.00;;;;;11.13;53.58;100880.34;5049782;28;10705;-67
2023/04/15 01:15:16;;;;;;;;;7.75;7.75;;;;;11.16;53.63;100885.34;5049995;28;10542;-67
2023/04/15 01:17:43;;;;;;;;;8.50;8.50;;;;;11.08;53.84;100880.13;5065058;28;10411;-67
2023/04/15 01:20:11;;;;;;;;;10.00;8.50;;;;;11.08;53.78;100883.63;5069403;28;10425;-68
2023/04/15 01:22:38;;;;;;;;;5.75;5.75;;;;;11.09;53.96;100882.59;5067722;28;10567;-67
2023/04/15 01:25:14;;;;;;;;;6.25;6.25;;;;;11.06;53.96;100885.72;5069348;28;10467;-67
2023/04/15 01:27:41;;;;;;;;;9.75;9.00;;;;;11.03;54.26;100886.09;5068282;28;10251;-66
2023/04/15 01:30:09;;;;;;;;;11.00;10.00;;;;;10.95;54.31;100885.41;5064787;28;10425;-67
2023/04/15 01:32:36;;;;;;;;;9.50;8.25;;;;;10.89;54.60;100884.31;5066977;28;10558;-68
2023/04/15 01:35:03;;;;;;;;;6.00;6.00;;;;;10.86;55.19;100885.56;5067826;28;10573;-66
2023/04/15 01:37:31;;;;;;;;;6.75;6.00;;;;;10.93;55.49;100884.75;5064249;28;10452;-68
2023/04/15 01:39:57;;;;;;;;;7.00;7.00;;;;;10.94;55.22;100897.19;5048271;28;10452;-65
2023/04/15 01:42:24;;;;;;;;;8.25;6.00;;;;;10.91;55.54;100889.53;5048299;28;10708;-66
2023/04/15 01:44:50;;;;;;;;;10.50;9.25;;;;;10.82;55.86;100886.97;5061464;28;10484;-67
2023/04/15 01:47:17;;;;;;;;;9.00;7.50;;;;;10.76;55.63;100890.44;5067547;28;10427;-67
2023/04/15 01:49:43;;;;;;;;;11.00;8.75;;;;;10.69;56.33;100897.59;5070222;28;10579;-66
2023/04/15 01:52:10;;;;;;;;;8.25;8.00;;;;;10.70;56.80;100893.09;5071839;28;10684;-68
2023/04/15 01:54:38;;;;;;;;;8.00;7.75;;;;;10.72;56.89;100896.41;5071612;28;10490;-67
2023/04/15 01:57:05;;;;;;;;;11.50;9.50;;;;;10.65;56.63;100899.03;5071722;28;10416;-66
2023/04/15 01:59:31;;;;;;;;;8.50;8.50;;;;;10.63;57.22;100899.22;5065342;28;10612;-69
2023/04/15 02:01:59;;;;;;;;;11.50;8.50;;;;;10.60;57.90;100905.00;5070976;28;10646;-69
2023/04/15 02:04:26;;;;;;;;;14.00;10.50;;;;;10.58;58.37;100893.59;5072828;28;10588;-68
2023/04/15 02:06:53;;;;;;;;;15.00;12.25;;;;;10.53;58.13;100889.81;5071550;28;10750;-68
2023/04/15 02:09:20;;;;;;;;;10.25;10.25;;;;;10.45;59.25;100903.38;5071616;28;10681;-68
2023/04/15 02:11:46;;;;;;;;;11.00;8.00;;;;;10.44;59.71;100899.03;5071581;28;10651;-68
2023/04/15 02:14:13;;;;;;;;;9.75;9.75;;;;;10.39;60.10;100903.13;5062078;28;10603;-68
2023/04/15 02:16:40;;;;;;;;;12.25;9.50;;;;;10.32;59.75;100899.53;5057046;28;10558;-69
2023/04/15 02:19:06;;;;;;;;;13.25;11.00;;;;;10.21;59.55;100908.09;5051567;28;10618;-69
2023/04/15 02:21:36;;;;;;;;;8.75;8.00;;;;;10.14;60.10;100905.31;5052607;28;10520;-69
2023/04/15 02:24:03;;;;;;;;;12.00;11.75;;;;;10.10;60.51;100909.41;5066980;28;10930;-67
2023/04/15 02:26:31;;;;;;;;;8.25;8.25;;;;;10.09;60.18;100905.06;5065234;28;10856;-69
2023/04/15 02:28:58;;;;;;;;;11.75;10.75;;;;;10.08;59.59;100908.75;5072467;28;10803;-68
2023/04/15 02:31:25;;;;;;;;;10.25;10.25;;;;;10.10;60.92;100905.91;5070750;28;10872;-69
2023/04/15 02:33:52;;;;;;;;;9.50;9.50;;;;;10.11;60.39;100908.38;5070710;28;10828;-69
2023/04/15 02:36:19;;;;;;;;;7.00;7.00;;;;;10.09;60.34;100912.31;5056286;28;11480;-69
2023/04/15 02:38:46;;;;;;;;;7.50;7.50;;;;;10.10;60.25;100916.66;5072037;28;10885;-69
2023/04/15 02:41:14;;;;;;;;;11.00;9.00;;;;;10.12;60.41;100923.50;5067032;28;10829;-69
2023/04/15 02:43:42;;;;;;;;;8.50;8.50;;;;;10.16;60.71;100927.47;5069576;28;10898;-68
2023/04/15 02:46:13;;;;;;;;;9.50;9.00;;;;;10.14;59.71;100926.84;5067276;28;11442;-69
2023/04/15 02:48:40;;;;;;;;;10.50;10.50;;;;;10.08;60.25;100938.34;5070824;28;10743;-70
2023/04/15 02:51:15;;;;;;;;;11.25;8.75;;;;;10.06;59.46;100936.88;5070593;28;10916;-71
2023/04/15 02:53:42;;;;;;;;;11.50;8.75;;;;;10.01;60.27;100934.75;5070754;28;10734;-70
2023/04/15 02:56:08;;;;;;;;;9.50;7.00;;;;;10.04;60.89;100944.28;5070305;28;10707;-68
2023/04/15 02:58:35;;;;;;;;;13.50;7.25;;;;;10.06;60.61;100945.78;5061598;28;10794;-69
2023/04/15 03:01:02;;;;;;;;;9.00;8.00;;;;;10.07;60.86;100944.75;5063625;28;10885;-68
2023/04/15 03:03:28;;;;;;;;;9.25;8.25;;;;;10.09;60.43;100948.09;5071674;28;11631;-67
2023/04/15 03:05:55;;;;;;;;;11.00;8.00;;;;;10.08;60.39;100942.91;5071471;28;10708;-68
2023/04/15 03:08:22;;;;;;;;;9.50;9.00;;;;;10.05;60.65;100951.38;5070398;28;10807;-68
2023/04/15 03:10:51;;;;;;;;;8.50;8.00;;;;;9.99;60.43;100944.84;5071661;28;10780;-68
2023/04/15 03:13:18;;;;;;;;;7.00;7.00;;;;;9.97;61.11;100949.59;5068766;28;10666;-69
2023/04/15 03:15:48;;;;;;;;;7.50;6.25;;;;;10.02;61.59;100955.25;5066069;28;10856;-68
2023/04/15 03:18:14;;;;;;;;;5.00;5.00;;;;;10.06;61.60;100953.84;5070139;28;10661;-67
2023/04/15 03:20:41;;;;;;;;;6.00;6.00;;;;;10.13;60.90;100959.31;5070216;28;11436;-68
2023/04/15 03:23:08;;;;;;;;;9.00;9.00;;;;;10.08;61.81;100967.09;5070018;28;10871;-68
2023/04/15 03:25:36;;;;;;;;;5.50;5.50;;;;;10.03;61.59;100961.47;5069897;28;10746;-67
2023/04/15 03:28:04;;;;;;;;;13.00;12.00;;;;;9.94;62.41;100968.78;5069389;28;10581;-68
2023/04/15 03:30:32;;;;;;;;;11.50;10.00;;;;;9.94;62.27;100965.28;5069987;28;11460;-68
2023/04/15 03:32:58;;;;;;;;;7.00;7.00;;;;;9.90;62.65;100964.81;5070200;28;10751;-68
2023/04/15 03:35:25;;;;;;;;;9.25;9.25;;;;;9.94;63.00;100976.88;5068336;28;10733;-67
2023/04/15 03:37:51;;;;;;;;;10.50;9.00;;;;;9.93;62.82;100974.38;5063237;28;10791;-69
2023/04/15 03:40:17;;;;;;;;;11.00;8.75;;;;;9.86;62.62;100977.78;5070919;28;10917;-68
2023/04/15 03:42:44;;;;;;;;;12.50;10.75;;;;;9.80;63.11;100980.38;5070196;28;10850;-69
2023/04/15 03:45:10;;;;;;;;;9.00;7.75;;;;;9.80;63.72;100989.31;5064168;28;11040;-69
2023/04/15 03:47:37;;;;;;;;;10.25;7.75;;;;;9.83;63.94;100977.31;5069661;28;10671;-68
2023/04/15 03:50:04;;;;;;;;;8.75;7.50;;;;;9.87;63.63;100984.84;5071065;28;10747;-69
2023/04/15 03:52:30;;;;;;;;;5.75;5.75;;;;;9.87;64.08;100987.53;5070841;28;10564;-68
2023/04/15 03:54:57;;;;;;;;;9.00;8.00;;;;;9.86;64.05;100991.25;5070641;28;10658;-69
2023/04/15 03:57:23;;;;;;;;;10.00;8.25;;;;;9.84;63.89;100997.81;5069898;28;10708;-69
2023/04/15 03:59:50;;;;;;;;;13.25;10.75;;;;;9.79;64.32;100984.09;5067074;28;10795;-67
2023/04/15 04:02:16;;;;;;;;;9.25;9.25;;;;;9.80;64.29;100999.19;5070690;28;10818;-68
2023/04/15 04:04:43;;;;;;;;;8.25;8.25;;;;;9.82;64.23;101003.38;5070429;28;10797;-68
2023/04/15 04:07:19;;;;;;;;;12.00;11.50;;;;;9.78;63.82;101003.94;5069529;28;10799;-67
2023/04/15 04:09:45;;;;;;;;;15.25;11.25;;;;;9.74;64.45;101011.53;5050413;28;10891;-68
2023/04/15 04:12:13;;;;;;;;;8.50;8.50;;;;;9.70;65.06;101006.72;5057290;28;11673;-68
2023/04/15 04:14:39;;;;;;;;;8.00;8.00;;;;;9.66;64.62;101009.78;5070176;28;10830;-68
2023/04/15 04:17:06;;;;;;;;;12.00;11.00;;;;;9.55;65.00;101010.22;5067244;28;11326;-67
2023/04/15 04:19:33;;;;;;;;;8.50;8.50;;;;;9.51;64.84;101022.34;5069612;28;11064;-68
2023/04/15 04:21:59;;;;;;;;;10.00;10.00;;;;;9.40;65.00;101020.97;5054530;28;11590;-69
2023/04/15 04:24:26;;;;;;;;;10.00;9.75;;;;;9.38;65.13;101014.91;5058027;28;11061;-68
2023/04/15 04:26:52;;;;;;;;;10.25;9.25;;;;;9.36;65.40;101030.41;5057901;28;11020;-68
2023/04/15 04:29:19;;;;;;;;;10.75;10.50;;;;;9.41;65.84;101024.47;5070604;28;11003;-70
2023/04/15 04:31:47;;;;;;;;;11.00;11.00;;;;;9.38;65.59;101033.72;5052161;28;11686;-68
2023/04/15 04:34:14;;;;;;;;;13.50;11.75;;;;;9.33;65.57;101037.97;5052152;28;10932;-68
2023/04/15 04:36:41;;;;;;;;;17.00;11.00;;;;;9.29;66.18;101034.81;5068940;28;11026;-67
2023/04/15 04:39:07;;;;;;;;;13.25;10.50;;;;;9.26;65.87;101034.34;5070253;28;11056;-68
2023/04/15 04:41:34;;;;;;;;;11.00;10.00;;;;;9.20;66.37;101045.81;5069375;28;11229;-69
2023/04/15 04:44:00;;;;;;;;;15.50;13.75;;;;;9.15;65.48;101054.38;5066176;28;11139;-68
2023/04/15 04:46:27;;;;;;;;;11.75;11.50;;;;;9.02;66.07;101060.38;5066215;28;11111;-67
2023/04/15 04:51:47;;;;;;;;;15.50;14.50;;;;;8.99;67.14;101062.56;4977825;28;11109;-66
2023/04/15 04:54:13;;;;;;;;;8.75;8.50;;;;;9.02;67.17;101068.41;4964467;28;11598;-66
2023/04/15 04:56:40;;;;;;;;;13.75;11.00;;;;;9.01;66.71;101071.28;4970435;28;11123;-66
2023/04/15 04:59:06;;;;;;;;;14.75;12.25;;;;;9.02;67.31;101079.16;4983156;28;11342;-66
2023/04/15 05:01:33;;;;;;;;;18.00;16.75;;;;;8.99;67.03;101074.13;4971162;28;11248;-66
2023/04/15 05:04:00;;;;;;;;;14.50;12.25;;;;;8.95;67.16;101080.88;4955923;28;11400;-66
2023/04/15 05:06:29;;;;;;;;;14.75;14.25;;;;;8.89;67.24;101093.19;4948385;28;11138;-66
2023/04/15 05:08:55;;;;;;;;;15.00;15.00;;;;;8.88;67.60;101088.81;4951904;28;11309;-66
2023/04/15 05:11:22;;;;;;;;;14.00;14.00;;;;;8.84;67.68;101103.63;4958960;28;11526;-66
2023/04/15 05:13:48;;;;;;;;;15.75;14.00;;;;;8.74;68.29;101104.84;4953503;28;11527;-66
2023/04/15 05:16:15;;;;;;;;;16.50;14.25;;;;;8.68;67.84;101092.97;4952780;28;11544;-66
2023/04/15 05:18:42;;;;;;;;;15.75;15.50;;;;;8.63;68.20;101106.91;4937071;28;11347;-66
2023/04/15 05:21:08;;;;;;;;;15.75;15.25;;;;;8.61;67.93;101113.47;4971056;28;11605;-66
2023/04/15 05:23:34;;;;;;;;;20.00;16.00;;;;;8.57;68.09;101114.81;4953565;28;11525;-66
2023/04/15 05:26:01;;;;;;;;;16.50;16.00;;;;;8.53;68.55;101119.69;4949618;28;11555;-66
2023/04/15 05:28:27;;;;;;;;;15.50;15.50;;;;;8.55;68.42;101128.41;4966871;28;11622;-66
2023/04/15 05:30:54;;;;;;;;;19.25;14.75;;;;;8.60;68.53;101123.34;4969709;28;11520;-66
2023/04/15 05:33:20;;;;;;;;;16.50;16.00;;;;;8.63;68.67;101132.91;4962064;28;11536;-66
2023/04/15 05:35:47;;;;;;;;;17.25;15.75;;;;;8.62;68.92;101139.28;4945643;28;12303;-66
2023/04/15 05:38:13;;;;;;;;;18.00;15.50;;;;;8.55;68.53;101141.00;4953945;28;11683;-66
2023/04/15 05:40:40;;;;;;;;;19.00;17.25;;;;;8.55;69.18;101141.00;4954592;28;11543;-66
2023/04/15 05:43:06;;;;;;;;;11.00;11.00;;;;;8.65;69.16;101152.34;4953156;28;11564;-66
2023/04/15 05:45:33;;;;;;;;;16.50;16.00;;;;;8.66;68.34;101146.78;4963658;28;11320;-66
2023/04/15 05:47:59;;;;;;;;;17.25;16.50;;;;;8.72;68.67;101150.66;4974480;28;11674;-66
2023/04/15 05:50:26;;;;;;;;;18.75;18.25;;;;;8.77;68.29;101150.94;4974150;28;11510;-66
2023/04/15 05:52:52;;;;;;;;;21.00;18.50;;;;;8.86;68.39;101155.25;4972598;28;11526;-67
2023/04/15 05:55:19;;;;;;;;;20.25;20.25;;;;;8.91;68.14;101168.16;4948604;28;11639;-66
2023/04/15 05:57:45;;;;;;;;;26.75;21.00;;;;;8.88;68.77;101172.06;4962447;28;11538;-66
2023/04/15 06:00:13;;;;;;;;;19.50;18.75;;;;;8.87;68.51;101180.25;4961599;28;11536;-66
2023/04/15 06:02:40;;;;;;;;;13.75;12.50;;;;;8.90;68.20;101180.75;4954719;28;11529;-66
2023/04/15 06:05:10;;;;;;;;;21.25;18.50;;;;;9.03;68.67;101187.41;4943619;28;11553;-66
2023/04/15 06:07:37;;;;;;;;;21.00;18.75;;;;;9.09;68.40;101184.03;4936554;28;12466;-66
2023/04/15 06:10:05;;;;;;;;;25.75;19.75;;;;;9.25;68.72;101200.06;4953151;28;11538;-67
2023/04/15 06:12:31;;;;;;;;;22.50;21.00;;;;;9.31;67.56;101206.56;4961956;28;11540;-67
2023/04/15 06:14:58;;;;;;;;;25.25;18.00;;;;;9.34;67.20;101206.22;4966579;28;11521;-67
2023/04/15 06:17:25;;;;;;;;;19.25;17.75;;;;;9.38;67.19;101208.34;4967785;28;11337;-67
2023/04/15 06:19:55;;;;;;;;;22.00;19.50;;;;;9.37;67.29;101222.81;4952342;28;11621;-67
2023/04/15 06:22:22;;;;;;;;;15.50;13.25;;;;;9.36;67.41;101228.38;4954392;28;11548;-67
2023/04/15 06:24:50;;;;;;;;;18.00;13.75;;;;;9.47;67.75;101227.13;4968268;28;11966;-67
2023/04/15 06:27:16;;;;;;;;;24.00;20.75;;;;;9.60;66.65;101233.59;4962122;28;11441;-68
2023/04/15 06:29:43;;;;;;;;;20.00;18.00;;;;;9.60;66.83;101238.09;4954234;28;11172;-67
2023/04/15 06:32:10;;;;;;;;;25.75;19.00;;;;;9.60;66.75;101238.09;4952356;28;11309;-67
2023/04/15 06:34:37;;;;;;;;;24.00;19.50;;;;;9.68;66.99;101246.13;4952400;28;11559;-67
2023/04/15 06:37:03;;;;;;;;;18.50;16.25;;;;;9.73;67.00;101245.59;4952665;28;12231;-67
2023/04/15 06:39:31;;;;;;;;;15.50;14.00;;;;;9.75;66.40;101255.16;4945624;28;11256;-67
2023/04/15 06:41:58;;;;;;;;;19.00;16.25;;;;;9.74;67.12;101253.47;4965636;28;11867;-67
2023/04/15 06:44:25;;;;;;;;;22.50;19.00;;;;;9.75;66.97;101259.69;4963844;28;11223;-66
2023/04/15 06:46:51;;;;;;;;;19.75;17.75;;;;;9.74;67.51;101260.72;4944998;28;11617;-66
2023/04/15 06:49:18;;;;;;;;;17.75;15.25;;;;;9.75;67.31;101252.47;4964810;28;11270;-66
2023/04/15 06:51:44;;;;;;;;;19.50;16.75;;;;;9.85;66.79;101261.16;4973172;28;11344;-67
2023/04/15 06:54:11;;;;;;;;;17.25;15.50;;;;;10.00;67.32;101263.03;4968477;28;11079;-68
2023/04/15 06:56:37;;;;;;;;;17.00;16.25;;;;;10.12;66.08;101278.56;4967107;28;11140;-67
2023/04/15 06:59:03;;;;;;;;;17.50;14.25;;;;;10.13;65.23;101268.66;4953774;28;11002;-67
2023/04/15 07:01:30;;;;;;;;;16.00;16.00;;;;;10.23;65.49;101271.09;4940256;28;11778;-68
2023/04/15 07:03:56;;;;;;;;;11.75;11.75;;;;;10.36;65.18;101274.03;4953826;28;10909;-67
2023/04/15 07:06:23;;;;;;;;;14.75;14.00;;;;;10.49;64.55;101278.78;4946157;28;10904;-67
2023/04/15 07:08:50;;;;;;;;;17.00;15.00;;;;;10.51;64.12;101285.66;4942069;28;10929;-67
2023/04/15 07:11:16;;;;;;;;;13.50;11.50;;;;;10.54;64.36;101290.69;4955506;28;11041;-66
2023/04/15 07:13:42;;;;;;;;;13.75;13.75;;;;;10.53;64.51;101293.53;4954256;28;10903;-66
2023/04/15 07:16:09;;;;;;;;;16.00;14.75;;;;;10.64;64.29;101296.63;4955740;28;10867;-67
2023/04/15 07:18:36;;;;;;;;;12.25;11.00;;;;;10.78;63.74;101296.84;4961052;28;10840;-66
2023/04/15 07:21:02;;;;;;;;;15.75;15.75;;;;;10.82;63.68;101299.00;4954747;28;10693;-66
2023/04/15 07:23:29;;;;;;;;;17.25;15.00;;;;;10.73;63.90;101310.00;4969624;28;10988;-66
2023/04/15 07:25:56;;;;;;;;;22.00;18.25;;;;;10.61;65.03;101309.63;4975034;28;10846;-67
2023/04/15 07:28:22;;;;;;;;;16.50;15.25;;;;;10.65;65.21;101324.38;4948130;28;11054;-67
2023/04/15 07:30:49;;;;;;;;;18.50;14.00;;;;;10.72;65.04;101328.03;4937182;28;10924;-67
2023/04/15 07:33:15;;;;;;;;;20.50;15.00;;;;;10.72;64.27;101322.66;4959048;28;10914;-67
2023/04/15 07:35:42;;;;;;;;;12.75;12.75;;;;;10.69;64.76;101333.78;4949736;28;11053;-67
2023/04/15 07:38:08;;;;;;;;;11.75;11.25;;;;;10.63;64.59;101329.13;4950650;28;11049;-67
2023/04/15 07:40:35;;;;;;;;;17.75;14.25;;;;;10.73;64.84;101335.09;4967845;28;10891;-67
2023/04/15 07:43:02;;;;;;;;;18.00;16.75;;;;;10.77;64.17;101340.94;4953065;28;10886;-67
2023/04/15 07:45:28;;;;;;;;;15.75;12.00;;;;;10.91;65.47;101352.78;4949925;28;11605;-67
2023/04/15 07:47:55;;;;;;;;;17.00;15.50;;;;;11.00;64.37;101346.28;4955723;28;10650;-67
2023/04/15 07:50:22;;;;;;;;;15.50;13.00;;;;;10.97;63.75;101360.94;4955610;28;10834;-67
2023/04/15 07:52:50;;;;;;;;;13.50;13.50;;;;;10.93;63.04;101358.78;4964048;28;10752;-67
2023/04/15 07:55:18;;;;;;;;;13.25;12.25;;;;;10.89;62.87;101350.25;4960123;28;10740;-67
2023/04/15 07:57:46;;;;;;;;;10.25;8.75;;;;;10.97;62.84;101365.50;4971219;28;10655;-67
2023/04/15 08:00:13;;;;;;;;;11.75;11.75;;;;;11.07;63.21;101368.75;4945670;28;10813;-67
2023/04/15 08:02:41;;;;;;;;;15.50;13.50;;;;;11.14;63.11;101373.22;4932036;29;11259;-67
2023/04/15 08:05:09;;;;;;;;;12.00;10.25;;;;;11.22;63.25;101377.69;4956758;28;10677;-67
2023/04/15 08:07:37;;;;;;;;;13.25;13.25;;;;;11.28;62.56;101379.63;4954882;28;10852;-67
2023/04/15 08:10:04;;;;;;;;;10.75;10.75;;;;;11.28;61.97;101386.88;4957714;28;10768;-67
2023/04/15 08:12:30;;;;;;;;;10.00;10.00;;;;;11.21;60.92;101392.19;4945545;28;10579;-67
2023/04/15 08:14:57;;;;;;;;;10.50;10.50;;;;;11.03;61.26;101397.94;4938929;28;10932;-68
2023/04/15 08:17:24;;;;;;;;;11.50;11.50;;;;;10.94;62.40;101388.25;4959917;28;10681;-67
2023/04/15 08:19:51;;;;;;;;;12.50;8.50;;;;;11.09;62.03;101402.56;4952062;28;10330;-66
2023/04/15 08:22:17;;;;;;;;;14.75;14.00;;;;;11.20;60.81;101406.69;4939668;28;10581;-66
2023/04/15 08:24:46;;;;;;;;;11.00;10.25;;;;;11.21;61.33;101420.97;4939080;28;10657;-67
2023/04/15 08:27:12;;;;;;;;;10.00;10.00;;;;;11.24;61.78;101409.84;4932968;29;10397;-67
2023/04/15 08:29:39;;;;;;;;;14.00;7.00;;;;;11.35;61.48;101412.09;4939738;28;11202;-67
2023/04/15 08:32:06;;;;;;;;;7.75;7.75;;;;;11.30;60.38;101412.66;4957783;28;10547;-66
2023/04/15 08:34:33;;;;;;;;;10.75;8.75;;;;;11.38;61.02;101414.38;4949326;28;10428;-67
2023/04/15 08:37:00;;;;;;;;;11.25;9.50;;;;;11.45;60.14;101422.59;4958497;28;10409;-66
2023/04/15 08:39:27;;;;;;;;;11.50;11.50;;;;;11.48;59.46;101420.34;4953705;28;11093;-67
2023/04/15 08:42:01;;;;;;;;;8.25;8.25;;;;;11.50;60.47;101422.84;4962753;28;11182;-67
2023/04/15 08:44:30;;;;;;;;;12.50;11.50;;;;;11.60;60.41;101439.59;4960163;28;10501;-67
2023/04/15 08:47:01;;;;;;;;;11.50;11.50;;;;;11.52;60.54;101445.91;4952479;28;10537;-67
2023/04/15 08:49:29;;;;;;;;;11.75;8.00;;;;;11.55;61.27;101437.47;4948737;28;10521;-67
2023/04/15 08:51:58;;;;;;;;;14.75;14.75;;;;;11.65;60.37;101445.25;4949126;28;10501;-67
2023/04/15 08:54:26;;;;;;;;;11.75;9.25;;;;;11.68;60.15;101442.19;4959272;28;10692;-67
2023/04/15 08:56:52;;;;;;;;;11.00;9.00;;;;;11.73;60.84;101436.25;4934602;29;10591;-66
2023/04/15 08:59:20;;;;;;;;;9.75;9.00;;;;;11.93;60.67;101453.56;4955816;28;10423;-66
2023/04/15 09:01:49;;;;;;;;;13.50;10.25;;;;;12.13;59.49;101451.09;4963470;28;10473;-67
2023/04/15 09:04:17;;;;;;;;;13.00;11.50;;;;;12.12;58.98;101452.13;4959962;28;11081;-66
2023/04/15 09:06:43;;;;;;;;;15.75;12.50;;;;;12.05;58.91;101457.44;4956985;28;10436;-66
2023/04/15 09:09:13;;;;;;;;;7.00;7.00;;;;;12.00;59.42;101464.44;4959162;28;10499;-67
2023/04/15 09:11:40;;;;;;;;;10.50;10.00;;;;;12.01;59.70;101468.81;4965089;28;10313;-67
2023/04/15 09:14:07;;;;;;;;;10.00;9.00;;;;;12.07;60.21;101470.72;4961474;28;10393;-67
2023/04/15 09:16:59;;;;;;;;;10.25;9.50;;;;;12.17;60.78;101474.00;4954705;28;10368;-66
2023/04/15 09:19:26;;;;;;;;;12.00;9.75;;;;;12.40;59.47;101478.38;4965938;28;10356;-67
2023/04/15 09:21:55;;;;;;;;;7.50;7.00;;;;;12.52;58.70;101477.72;4970992;28;10391;-67
2023/04/15 09:24:33;;;;;;;;;13.00;12.50;;;;;12.68;59.17;101490.16;4960000;28;10281;-67
2023/04/15 09:26:59;;;;;;;;;11.25;8.25;;;;;12.83;58.43;101482.78;4965397;28;10192;-67
2023/04/15 09:29:26;;;;;;;;;9.75;8.75;;;;;12.98;57.48;101484.59;4954239;28;10186;-67
2023/04/15 09:31:53;;;;;;;;;6.50;6.50;;;;;13.12;57.33;101497.19;4974522;28;10717;-66
2023/04/15 09:34:20;;;;;;;;;10.50;9.50;;;;;13.19;57.60;101503.50;4959191;28;10118;-67
2023/04/15 09:36:46;;;;;;;;;7.25;7.25;;;;;13.38;56.93;101509.31;4965275;28;10206;-66
2023/04/15 09:39:16;;;;;;;;;8.50;7.00;;;;;13.52;56.36;101502.94;4949694;28;10010;-66
2023/04/15 09:41:43;;;;;;;;;9.50;8.50;;;;;13.32;54.94;101503.63;4964165;28;10089;-67
2023/04/15 09:44:25;;;;;;;;;8.50;8.50;;;;;13.16;55.95;101509.28;4958348;28;10102;-67
2023/04/15 09:46:52;;;;;;;;;8.50;8.50;;;;;13.18;55.91;101520.75;4958457;28;10027;-66
2023/04/15 09:49:19;;;;;;;;;11.75;9.00;;;;;13.18;55.52;101528.03;4957461;28;10086;-65
2023/04/15 09:51:46;;;;;;;;;6.50;6.00;;;;;13.08;56.01;101512.97;4956769;28;10103;-67
2023/04/15 09:54:37;;;;;;;;;8.75;8.75;;;;;13.18;55.09;101530.72;4958645;28;10023;-66
2023/04/15 09:57:08;;;;;;;;;8.50;6.75;;;;;13.13;55.38;101516.97;4960582;28;9955;-66
2023/04/15 09:59:35;;;;;;;;;8.25;8.25;;;;;13.13;55.55;101533.19;4951217;28;9784;-66
2023/04/15 10:02:05;;;;;;;;;6.75;5.75;;;;;13.21;55.71;101533.06;4953735;28;9928;-68
2023/04/15 10:04:38;;;;;;;;;10.25;8.50;;;;;13.38;56.36;101539.03;4960933;28;10757;-66
2023/04/15 10:07:06;;;;;;;;;14.50;12.00;;;;;13.49;54.82;101533.94;4958485;28;9922;-67
2023/04/15 10:09:35;;;;;;;;;10.00;8.50;;;;;13.40;54.58;101537.78;4967275;28;10037;-67
2023/04/15 10:12:04;;;;;;;;;6.00;6.00;;;;;13.33;54.96;101543.16;4960581;28;9988;-67
2023/04/15 10:14:37;;;;;;;;;8.00;7.00;;;;;13.33;53.80;101537.75;4959663;28;9856;-67
2023/04/15 10:17:04;;;;;;;;;7.50;7.50;;;;;13.29;54.05;101544.59;4945715;28;9942;-66
2023/04/15 10:19:35;;;;;;;;;7.75;7.75;;;;;13.22;54.53;101543.66;4988994;28;9894;-66
2023/04/15 10:22:02;;;;;;;;;7.00;6.50;;;;;13.29;55.26;101543.75;4966226;28;9777;-66
2023/04/15 10:24:31;;;;;;;;;9.50;8.00;;;;;13.43;55.34;101550.94;4961886;28;9973;-66
2023/04/15 10:26:59;;;;;;;;;6.00;6.00;;;;;13.64;55.18;101546.50;4938864;29;10887;-66
2023/04/15 10:29:26;;;;;;;;;8.75;6.75;;;;;13.75;54.95;101551.38;4955433;28;10615;-66
2023/04/15 10:31:57;;;;;;;;;11.25;10.25;;;;;13.70;54.85;101549.28;4965542;28;9980;-67
2023/04/15 10:34:25;;;;;;;;;5.25;5.25;;;;;13.62;55.05;101560.25;4953128;28;9943;-66
2023/04/15 10:36:57;;;;;;;;;10.50;10.50;;;;;13.47;54.19;101564.91;4946596;28;9897;-66
2023/04/15 10:39:50;;;;;;;;;9.75;9.75;;;;;13.33;54.18;101559.41;4965178;28;10145;-66
2023/04/15 10:42:18;;;;;;;;;6.75;6.00;;;;;13.27;55.22;101565.56;4969356;28;10043;-66
2023/04/15 10:44:53;;;;;;;;;6.50;5.25;;;;;13.27;55.35;101570.13;4963172;28;9931;-68
2023/04/15 10:47:20;;;;;;;;;7.00;6.25;;;;;13.25;54.29;101573.06;4961121;28;10047;-66
2023/04/15 10:49:49;;;;;;;;;12.50;8.00;;;;;13.18;54.21;101564.00;4944284;28;10021;-67
2023/04/15 10:52:21;;;;;;;;;6.75;6.25;;;;;13.22;54.46;101572.56;4955159;28;10017;-67
2023/04/15 10:54:48;;;;;;;;;7.00;6.00;;;;;13.30;54.14;101575.16;4958503;28;9938;-67
2023/04/15 10:57:21;;;;;;;;;6.25;5.75;;;;;13.35;54.17;101570.84;4957896;28;9928;-67
2023/04/15 11:00:00;;;;;;;;;3.00;2.25;;;;;13.45;54.65;101577.78;4953624;28;9773;-66
2023/04/15 11:02:42;;;;;;;;;6.00;5.00;;;;;13.46;54.28;101572.19;4961343;28;10452;-66
2023/04/15 11:05:13;;;;;;;;;7.00;6.00;;;;;13.41;54.89;101573.78;4972627;28;9894;-67
2023/04/15 11:07:45;;;;;;;;;5.25;5.00;;;;;13.29;55.21;101577.03;4958898;28;9770;-67
2023/04/15 11:10:12;;;;;;;;;5.75;3.50;;;;;13.24;55.16;101584.03;4950104;28;10699;-66
2023/04/15 11:12:40;;;;;;;;;6.00;5.00;;;;;13.21;55.74;101585.25;4960975;28;9855;-66
2023/04/15 11:15:28;;;;;;;;;5.50;5.50;;;;;13.12;55.70;101599.91;4951686;28;9911;-66
2023/04/15 11:18:07;;;;;;;;;5.00;5.00;;;;;13.11;55.56;101592.84;4945208;28;9809;-66
2023/04/15 11:20:34;;;;;;;;;8.50;7.25;;;;;13.15;55.76;101599.53;4933331;29;9935;-66
2023/04/15 11:23:01;;;;;;;;;6.00;6.00;;;;;13.32;55.25;101595.56;4934854;28;9936;-66
2023/04/15 11:25:41;;;;;;;;;5.50;5.00;;;;;13.45;54.76;101602.97;4967737;28;9876;-65